TimeCDT,TemperatureF,Dew PointF,Humidity,Sea Level PressureIn,VisibilityMPH,Wind Direction,Wind SpeedMPH,Gust SpeedMPH,PrecipitationIn,Events,Conditions,WindDirDegrees,DateUTC
12:15 AM,81.9,76.6,84,29.83,10.0,SE,15.0,19.6,N/A,,Overcast,140,2013-09-20 05:15:00
12:35 AM,82.4,76.8,83,29.83,10.0,SE,15.0,21.9,N/A,,Overcast,140,2013-09-20 05:35:00
12:55 AM,82.6,77.0,83,29.83,10.0,SE,12.7,-,N/A,,Overcast,140,2013-09-20 05:55:00
1:15 AM,82.8,77.5,84,29.82,10.0,SE,13.8,19.6,N/A,,Overcast,140,2013-09-20 06:15:00
1:35 AM,82.4,76.8,83,29.82,10.0,SSE,16.1,24.2,N/A,,Overcast,150,2013-09-20 06:35:00
1:55 AM,82.4,77.0,84,29.81,10.0,SSE,15.0,23.0,N/A,,Mostly Cloudy,150,2013-09-20 06:55:00
2:15 AM,82.2,77.0,84,29.81,10.0,SSE,15.0,23.0,N/A,,Mostly Cloudy,150,2013-09-20 07:15:00
2:35 AM,82.4,77.0,84,29.81,10.0,SSE,16.1,21.9,N/A,,Mostly Cloudy,150,2013-09-20 07:35:00
2:55 AM,81.9,76.1,83,29.80,10.0,SSE,17.3,20.7,N/A,,Mostly Cloudy,150,2013-09-20 07:55:00
3:15 AM,82.4,76.6,83,29.79,10.0,SSE,17.3,24.2,N/A,,Mostly Cloudy,150,2013-09-20 08:15:00
3:35 AM,80.8,75.7,85,29.79,10.0,SSE,19.6,27.6,N/A,,Scattered Clouds,160,2013-09-20 08:35:00
3:55 AM,80.8,76.5,87,29.78,7.0,South,16.1,23.0,N/A,,Scattered Clouds,170,2013-09-20 08:55:00
4:15 AM,81.1,75.2,82,29.78,10.0,South,15.0,20.7,N/A,,Scattered Clouds,170,2013-09-20 09:15:00
4:35 AM,81.5,75.2,81,29.78,10.0,South,17.3,23.0,N/A,,Clear,170,2013-09-20 09:35:00
4:55 AM,81.7,76.1,83,29.77,10.0,SSE,16.1,19.6,N/A,Thunderstorm,Mostly Cloudy,160,2013-09-20 09:55:00
5:15 AM,81.7,76.1,83,29.77,10.0,SSE,15.0,19.6,N/A,,Mostly Cloudy,160,2013-09-20 10:15:00
5:35 AM,81.9,76.5,84,29.78,10.0,South,12.7,18.4,N/A,,Mostly Cloudy,170,2013-09-20 10:35:00
5:55 AM,82.2,76.3,82,29.78,10.0,SSE,13.8,21.9,N/A,,Overcast,160,2013-09-20 10:55:00
6:15 AM,82.4,76.5,82,29.77,10.0,SSE,15.0,20.7,N/A,,Overcast,160,2013-09-20 11:15:00
6:35 AM,82.4,76.8,83,29.77,10.0,SSE,10.4,-,N/A,Thunderstorm,Overcast,160,2013-09-20 11:35:00
6:55 AM,82.4,77.2,84,29.77,7.0,SSE,12.7,-,N/A,,Overcast,160,2013-09-20 11:55:00
7:15 AM,82.4,77.7,86,29.78,7.0,SSE,10.4,17.3,N/A,,Overcast,160,2013-09-20 12:15:00
7:35 AM,82.8,77.2,83,29.78,7.0,South,11.5,18.4,N/A,,Overcast,180,2013-09-20 12:35:00
7:55 AM,80.6,77.0,89,29.78,7.0,South,9.2,-,N/A,,Overcast,180,2013-09-20 12:55:00
8:15 AM,82.8,78.1,86,29.79,7.0,SSE,13.8,-,N/A,,Mostly Cloudy,160,2013-09-20 13:15:00
8:35 AM,82.9,76.6,81,29.79,7.0,SSE,15.0,21.9,N/A,,Mostly Cloudy,160,2013-09-20 13:35:00
8:55 AM,83.1,78.1,85,29.79,5.0,SSE,11.5,21.9,N/A,,Haze,160,2013-09-20 13:55:00
9:15 AM,84.2,77.7,81,29.79,7.0,SSE,15.0,18.4,N/A,,Scattered Clouds,160,2013-09-20 14:15:00
9:35 AM,84.2,76.6,78,29.80,10.0,SSE,16.1,25.3,N/A,,Mostly Cloudy,160,2013-09-20 14:35:00
9:55 AM,83.5,76.6,80,29.80,7.0,SSE,12.7,20.7,N/A,,Mostly Cloudy,160,2013-09-20 14:55:00
10:15 AM,85.5,77.5,77,29.79,7.0,SSE,15.0,20.7,N/A,,Mostly Cloudy,150,2013-09-20 15:15:00
10:35 AM,84.2,77.7,81,29.80,7.0,South,15.0,21.9,N/A,,Mostly Cloudy,170,2013-09-20 15:35:00
10:55 AM,84.4,77.7,80,29.80,7.0,South,10.4,-,N/A,Thunderstorm,Mostly Cloudy,170,2013-09-20 15:55:00
11:15 AM,87.6,77.4,71,29.80,10.0,South,16.1,21.9,N/A,,Scattered Clouds,170,2013-09-20 16:15:00
11:35 AM,85.5,77.5,77,29.79,7.0,South,16.1,20.7,N/A,,Mostly Cloudy,170,2013-09-20 16:35:00
11:55 AM,84.6,77.7,80,29.78,7.0,SSE,11.5,19.6,N/A,,Mostly Cloudy,160,2013-09-20 16:55:00
12:15 PM,82.4,76.5,82,29.78,7.0,SSE,15.0,20.7,N/A,Thunderstorm,Overcast,160,2013-09-20 17:15:00
12:35 PM,83.3,76.3,79,29.78,10.0,SSE,17.3,23.0,N/A,,Mostly Cloudy,160,2013-09-20 17:35:00
12:55 PM,84.4,77.2,79,29.77,10.0,SSE,15.0,20.7,N/A,,Scattered Clouds,160,2013-09-20 17:55:00
1:15 PM,85.8,78.1,78,29.76,7.0,SSE,17.3,-,N/A,,Scattered Clouds,160,2013-09-20 18:15:00
1:35 PM,87.4,77.0,71,29.76,10.0,South,15.0,21.9,N/A,,Scattered Clouds,170,2013-09-20 18:35:00
1:55 PM,86.9,77.2,73,29.76,10.0,South,15.0,20.7,N/A,,Scattered Clouds,170,2013-09-20 18:55:00
2:15 PM,88.2,77.2,70,29.75,10.0,South,16.1,21.9,N/A,,Scattered Clouds,170,2013-09-20 19:15:00
2:35 PM,87.4,77.4,72,29.73,10.0,South,16.1,19.6,N/A,,Scattered Clouds,170,2013-09-20 19:35:00
2:55 PM,85.8,77.9,77,29.74,7.0,South,16.1,21.9,N/A,,Mostly Cloudy,180,2013-09-20 19:55:00
3:15 PM,85.3,80.6,86,29.73,7.0,SSE,10.4,17.3,0.01,,Overcast,160,2013-09-20 20:15:00
3:35 PM,84.9,77.7,79,29.73,7.0,South,12.7,-,0.01,Thunderstorm,Mostly Cloudy,170,2013-09-20 20:35:00
3:55 PM,84.4,77.4,79,29.71,10.0,South,13.8,-,0.01,,Mostly Cloudy,170,2013-09-20 20:55:00
4:15 PM,84.4,77.4,79,29.71,10.0,South,10.4,18.4,N/A,,Mostly Cloudy,170,2013-09-20 21:15:00
4:35 PM,84.2,77.2,79,29.71,7.0,South,11.5,-,N/A,,Scattered Clouds,170,2013-09-20 21:35:00
4:55 PM,84.0,77.0,79,29.72,7.0,South,10.4,-,N/A,,Scattered Clouds,170,2013-09-20 21:55:00
5:15 PM,84.2,77.5,80,29.71,7.0,South,11.5,-,N/A,,Mostly Cloudy,170,2013-09-20 22:15:00
5:35 PM,84.2,77.4,80,29.71,7.0,South,12.7,-,N/A,,Overcast,170,2013-09-20 22:35:00
5:55 PM,84.6,77.2,78,29.71,7.0,South,15.0,18.4,N/A,,Mostly Cloudy,170,2013-09-20 22:55:00
6:15 PM,84.6,77.5,79,29.70,7.0,South,9.2,-,N/A,,Overcast,170,2013-09-20 23:15:00
6:35 PM,84.2,77.4,80,29.70,7.0,South,10.4,-,N/A,,Mostly Cloudy,170,2013-09-20 23:35:00
6:55 PM,83.8,77.0,80,29.70,7.0,South,11.5,16.1,N/A,,Overcast,170,2013-09-20 23:55:00
7:15 PM,83.5,77.2,81,29.70,7.0,SSE,10.4,-,N/A,,Overcast,160,2013-09-21 00:15:00
7:35 PM,83.3,77.0,81,29.70,7.0,South,10.4,-,N/A,,Overcast,170,2013-09-21 00:35:00
7:55 PM,83.3,77.2,82,29.71,10.0,SSE,11.5,-,N/A,,Overcast,160,2013-09-21 00:55:00
8:15 PM,83.3,76.8,81,29.72,10.0,SSE,8.1,-,N/A,,Overcast,160,2013-09-21 01:15:00
8:35 PM,83.3,77.5,83,29.73,7.0,SSE,9.2,-,N/A,,Overcast,160,2013-09-21 01:35:00
8:55 PM,83.3,77.4,82,29.73,7.0,SSE,8.1,-,N/A,Thunderstorm,Overcast,150,2013-09-21 01:55:00
9:15 PM,83.3,77.5,83,29.73,7.0,SSE,8.1,-,N/A,,Overcast,160,2013-09-21 02:15:00
9:35 PM,83.3,77.4,82,29.73,7.0,South,6.9,-,N/A,,Mostly Cloudy,170,2013-09-21 02:35:00
9:55 PM,82.9,77.0,82,29.73,7.0,South,6.9,-,N/A,,Scattered Clouds,180,2013-09-21 02:55:00
10:15 PM,82.8,77.2,83,29.74,7.0,South,6.9,-,N/A,Thunderstorm,Scattered Clouds,180,2013-09-21 03:15:00
10:35 PM,82.8,77.5,84,29.74,7.0,South,3.5,-,N/A,,Overcast,180,2013-09-21 03:35:00
10:55 PM,82.8,77.5,84,29.75,7.0,Calm,Calm,-,N/A,,Overcast,0,2013-09-21 03:55:00
11:15 PM,81.0,76.3,86,29.74,7.0,WNW,6.9,-,N/A,,Overcast,300,2013-09-21 04:15:00
11:35 PM,80.6,76.3,87,29.74,10.0,Calm,Calm,-,N/A,,Overcast,0,2013-09-21 04:35:00
11:55 PM,80.8,77.0,88,29.75,10.0,SSW,4.6,-,N/A,Rain,Light Rain,210,2013-09-21 04:55:00